Time;durP1;ratioP1;P1;durP2;ratioP2;P2;SDS_P1;SDS_P2;PMS_P1;PMS_P2;Temp;Humidity;BMP_temperature;BMP_pressure;BME280_temperature;BME280_humidity;BME280_pressure;Samples;Min_cycle;Max_cycle;Signal;HPM_P1;HPM_P2
2021/06/14 00:00:07;;;;;;;1.60;1.50;;;17.50;99.90;;;;;;5011623;28;20034;-78
2021/06/14 00:02:33;;;;;;;1.95;1.75;;;17.20;99.90;;;;;;5011232;28;20026;-79
2021/06/14 00:04:59;;;;;;;1.85;1.75;;;17.30;99.90;;;;;;5011599;28;20030;-78
2021/06/14 00:07:24;;;;;;;1.60;1.50;;;17.40;99.90;;;;;;5011334;28;20038;-80
2021/06/14 00:09:51;;;;;;;1.60;1.50;;;17.40;99.90;;;;;;5011494;28;20099;-79
2021/06/14 00:12:21;;;;;;;1.92;1.83;;;17.30;99.90;;;;;;5011166;28;20033;-81
2021/06/14 00:14:49;;;;;;;1.60;1.50;;;17.20;99.90;;;;;;5011197;28;20026;-78
2021/06/14 00:17:15;;;;;;;3.78;2.50;;;16.90;99.90;;;;;;5011624;28;20030;-82
2021/06/14 00:19:41;;;;;;;2.55;2.35;;;16.70;99.90;;;;;;5015389;28;20041;-84
2021/06/14 00:22:08;;;;;;;1.73;1.63;;;16.50;99.90;;;;;;5015520;28;20026;-80
2021/06/14 00:24:33;;;;;;;1.70;1.60;;;16.40;99.90;;;;;;5015007;28;20025;-79
2021/06/14 00:26:59;;;;;;;1.90;1.80;;;16.50;99.90;;;;;;5015035;28;20021;-84
2021/06/14 00:29:25;;;;;;;1.65;1.55;;;16.60;99.90;;;;;;5015348;28;20034;-79
2021/06/14 00:31:51;;;;;;;2.67;2.50;;;16.80;99.90;;;;;;5015073;28;20113;-81
2021/06/14 00:34:16;;;;;;;3.25;2.75;;;16.90;99.90;;;;;;5014853;28;20523;-78
2021/06/14 00:36:42;;;;;;;1.80;1.70;;;16.80;99.90;;;;;;5015566;28;20465;-79
2021/06/14 00:39:08;;;;;;;2.15;2.00;;;16.90;99.90;;;;;;5014807;28;20470;-79
2021/06/14 00:41:34;;;;;;;2.50;2.30;;;16.80;99.90;;;;;;5014882;28;20036;-79
2021/06/14 00:43:59;;;;;;;1.75;1.65;;;16.80;99.90;;;;;;5013406;28;20025;-77
2021/06/14 00:46:25;;;;;;;1.80;1.70;;;16.90;99.90;;;;;;5014751;28;20409;-78
2021/06/14 00:48:51;;;;;;;1.70;1.60;;;17.00;99.90;;;;;;5014741;28;20609;-78
2021/06/14 00:51:17;;;;;;;1.60;1.50;;;17.00;99.90;;;;;;5015032;28;20037;-79
2021/06/14 00:53:44;;;;;;;1.70;1.60;;;16.80;99.90;;;;;;5014498;28;20373;-78
2021/06/14 00:56:12;;;;;;;1.88;1.77;;;16.80;99.90;;;;;;5014395;28;20032;-78
2021/06/14 00:58:40;;;;;;;1.60;1.50;;;16.80;99.90;;;;;;5014623;28;20029;-80
2021/06/14 01:01:07;;;;;;;1.80;1.70;;;16.70;99.90;;;;;;5014765;28;20543;-79
2021/06/14 01:03:33;;;;;;;1.70;1.60;;;16.80;99.90;;;;;;5013680;28;20409;-76
2021/06/14 01:06:02;;;;;;;2.10;1.90;;;16.80;99.90;;;;;;5014567;28;20030;-78
2021/06/14 01:08:31;;;;;;;1.70;1.60;;;16.90;99.90;;;;;;4999512;28;20030;-78
2021/06/14 01:10:59;;;;;;;1.73;1.63;;;16.90;99.90;;;;;;4994298;28;20026;-78
2021/06/14 01:13:52;;;;;;;1.70;1.60;;;16.90;99.90;;;;;;4993407;28;20073;-79
2021/06/14 01:16:45;;;;;;;1.60;1.50;;;16.90;99.90;;;;;;4994297;28;20029;-79
2021/06/14 01:19:32;;;;;;;2.13;1.92;;;16.90;99.90;;;;;;4975248;28;20027;-78
2021/06/14 01:22:18;;;;;;;1.80;1.70;;;16.80;99.90;;;;;;4974838;28;20035;-78
2021/06/14 01:24:43;;;;;;;2.13;1.92;;;16.60;99.90;;;;;;4975248;28;20046;-80
2021/06/14 01:27:21;;;;;;;1.60;1.50;;;16.60;99.90;;;;;;4975052;28;20069;-79
2021/06/14 01:29:48;;;;;;;1.70;1.60;;;16.70;99.90;;;;;;4974068;28;20181;-80
2021/06/14 01:32:14;;;;;;;2.00;1.90;;;16.70;99.90;;;;;;4984612;28;20060;-77
2021/06/14 01:34:42;;;;;;;1.80;1.70;;;16.80;99.90;;;;;;5014472;28;20026;-79
2021/06/14 01:37:09;;;;;;;2.17;2.03;;;16.90;99.90;;;;;;5014005;28;20044;-77
2021/06/14 01:39:38;;;;;;;1.70;1.60;;;17.10;99.90;;;;;;5014020;28;20034;-78
2021/06/14 01:42:05;;;;;;;1.70;1.60;;;17.00;99.90;;;;;;5013435;28;20029;-78
2021/06/14 01:44:32;;;;;;;1.60;1.50;;;17.00;99.90;;;;;;5014132;28;20049;-79
2021/06/14 01:47:01;;;;;;;1.60;1.50;;;16.80;99.90;;;;;;5013737;28;20033;-80
2021/06/14 01:49:28;;;;;;;1.60;1.50;;;16.70;99.90;;;;;;5014157;28;20097;-78
2021/06/14 01:51:54;;;;;;;2.03;1.88;;;16.80;99.90;;;;;;5013629;28;20033;-79
2021/06/14 01:54:20;;;;;;;2.35;2.15;;;16.80;99.90;;;;;;5013813;28;20032;-79
2021/06/14 01:56:49;;;;;;;1.70;1.60;;;16.80;99.90;;;;;;5012536;28;20022;-81
2021/06/14 01:59:19;;;;;;;1.60;1.50;;;16.90;99.70;;;;;;5013067;28;20381;-79
2021/06/14 02:01:48;;;;;;;1.60;1.50;;;16.80;99.80;;;;;;5013540;28;20036;-81
2021/06/14 02:04:14;;;;;;;2.08;1.98;;;16.80;99.90;;;;;;5013186;28;20271;-79
2021/06/14 02:06:43;;;;;;;1.90;1.80;;;16.90;99.70;;;;;;5013195;28;20037;-81
2021/06/14 02:09:12;;;;;;;1.70;1.60;;;16.70;99.90;;;;;;5011767;28;20439;-83
2021/06/14 02:11:54;;;;;;;1.70;1.60;;;16.60;99.90;;;;;;5013172;28;20029;-81
2021/06/14 02:14:24;;;;;;;1.77;1.67;;;16.60;99.90;;;;;;5013120;28;20079;-81
2021/06/14 02:16:51;;;;;;;1.70;1.60;;;16.60;99.90;;;;;;5013102;28;20030;-80
2021/06/14 02:19:17;;;;;;;1.65;1.55;;;16.50;99.90;;;;;;5012834;28;20052;-81
2021/06/14 02:21:44;;;;;;;1.70;1.60;;;16.50;99.90;;;;;;5012429;28;20125;-82
2021/06/14 02:24:12;;;;;;;2.03;1.92;;;16.50;99.90;;;;;;5013225;28;20029;-83
2021/06/14 02:26:39;;;;;;;1.70;1.60;;;16.60;99.10;;;;;;5012818;28;20034;-85
2021/06/14 02:29:05;;;;;;;1.70;1.60;;;16.70;99.20;;;;;;5011719;28;20061;-79
2021/06/14 02:31:33;;;;;;;1.70;1.60;;;16.70;98.80;;;;;;5012938;28;20429;-82
2021/06/14 02:34:00;;;;;;;2.53;2.33;;;16.80;98.40;;;;;;5012789;28;20034;-82
2021/06/14 02:36:26;;;;;;;2.00;1.90;;;16.80;98.70;;;;;;5012492;28;20026;-80
2021/06/14 02:38:53;;;;;;;1.70;1.60;;;16.80;98.50;;;;;;5012846;28;20030;-80
2021/06/14 02:41:20;;;;;;;1.70;1.60;;;16.90;97.80;;;;;;5012250;28;20022;-82
2021/06/14 02:43:47;;;;;;;1.70;1.60;;;17.00;97.10;;;;;;5012586;28;20030;-80
2021/06/14 02:46:14;;;;;;;1.70;1.60;;;17.10;96.70;;;;;;5012311;28;20030;-79
2021/06/14 02:48:43;;;;;;;1.63;1.52;;;17.10;96.50;;;;;;5012415;28;20362;-80
2021/06/14 02:51:09;;;;;;;1.70;1.60;;;17.10;95.80;;;;;;5012575;28;20045;-80
2021/06/14 02:53:37;;;;;;;1.60;1.50;;;17.20;95.60;;;;;;5012615;28;20097;-79
2021/06/14 02:56:08;;;;;;;1.70;1.60;;;17.00;96.20;;;;;;5011804;28;20068;-78
2021/06/14 02:58:39;;;;;;;1.95;1.85;;;16.90;95.70;;;;;;5012348;28;20032;-81
2021/06/14 03:01:08;;;;;;;1.75;1.65;;;17.00;96.00;;;;;;5011103;28;20030;-79
2021/06/14 03:03:39;;;;;;;1.60;1.50;;;17.00;96.00;;;;;;5012250;28;20033;-80
2021/06/14 03:06:08;;;;;;;1.60;1.50;;;16.90;95.70;;;;;;5011927;28;20121;-79
2021/06/14 03:08:36;;;;;;;1.70;1.60;;;16.90;95.50;;;;;;5012288;28;20033;-78
2021/06/14 03:11:03;;;;;;;1.60;1.50;;;17.00;95.10;;;;;;5012055;28;20382;-80
2021/06/14 03:13:29;;;;;;;1.67;1.58;;;16.90;95.60;;;;;;5011967;28;20094;-79
2021/06/14 03:15:56;;;;;;;1.70;1.60;;;17.10;95.50;;;;;;5011655;28;20037;-79
2021/06/14 03:18:24;;;;;;;1.58;1.48;;;17.00;95.50;;;;;;5011770;28;20076;-78
2021/06/14 03:20:53;;;;;;;1.60;1.50;;;17.00;96.10;;;;;;5012049;28;20030;-80
2021/06/14 03:23:19;;;;;;;1.83;1.70;;;17.00;96.10;;;;;;5011876;28;20025;-79
2021/06/14 03:25:45;;;;;;;1.60;1.50;;;17.00;96.30;;;;;;5011434;28;20414;-79
2021/06/14 03:28:14;;;;;;;1.70;1.60;;;17.00;96.30;;;;;;5011680;28;20045;-80
2021/06/14 03:30:41;;;;;;;1.60;1.50;;;16.90;96.10;;;;;;5011823;28;20493;-80
2021/06/14 03:33:09;;;;;;;1.60;1.50;;;17.00;95.80;;;;;;5010991;28;20034;-80
2021/06/14 03:35:35;;;;;;;1.70;1.60;;;16.90;95.70;;;;;;5011802;28;20026;-80
2021/06/14 03:38:02;;;;;;;1.80;1.70;;;17.00;95.60;;;;;;5010513;28;20030;-78
2021/06/14 03:40:28;;;;;;;1.60;1.50;;;17.00;95.30;;;;;;5011489;28;20069;-77
2021/06/14 03:43:03;;;;;;;2.05;1.95;;;17.00;95.20;;;;;;4987283;28;20066;-81
2021/06/14 03:45:29;;;;;;;1.60;1.50;;;17.10;95.30;;;;;;4972811;28;20027;-80
2021/06/14 03:47:56;;;;;;;1.60;1.50;;;17.10;95.20;;;;;;4971364;28;20475;-82
2021/06/14 03:50:22;;;;;;;1.65;1.55;;;17.20;95.10;;;;;;4973192;28;20082;-77
2021/06/14 03:52:48;;;;;;;1.60;1.50;;;17.10;94.90;;;;;;4972017;28;20119;-79
2021/06/14 03:55:14;;;;;;;2.35;2.15;;;17.10;95.00;;;;;;4972688;28;20110;-81
2021/06/14 03:57:41;;;;;;;1.50;1.40;;;17.10;94.60;;;;;;4972175;28;20479;-80
2021/06/14 04:00:10;;;;;;;1.60;1.50;;;17.10;94.30;;;;;;4972890;28;20063;-78
2021/06/14 04:02:36;;;;;;;1.50;1.40;;;17.00;94.70;;;;;;4972425;28;20378;-78
2021/06/14 04:05:02;;;;;;;1.70;1.60;;;17.00;94.70;;;;;;4973165;28;20463;-81
2021/06/14 04:07:27;;;;;;;2.13;1.98;;;16.70;94.80;;;;;;4972272;28;20528;-79
2021/06/14 04:09:58;;;;;;;2.22;2.13;;;16.70;94.90;;;;;;4972223;28;20054;-79
2021/06/14 04:12:23;;;;;;;2.08;1.95;;;16.70;94.60;;;;;;4972281;28;20023;-79
2021/06/14 04:14:49;;;;;;;1.60;1.50;;;16.70;95.70;;;;;;4972599;28;20401;-81
2021/06/14 04:17:15;;;;;;;1.70;1.60;;;16.70;95.50;;;;;;4972372;28;20030;-81
2021/06/14 04:19:40;;;;;;;1.75;1.65;;;16.80;95.60;;;;;;4972636;28;20427;-77
2021/06/14 04:22:06;;;;;;;1.60;1.50;;;16.80;95.60;;;;;;4972532;28;20050;-77
2021/06/14 04:24:32;;;;;;;3.20;2.38;;;16.80;95.20;;;;;;4971935;28;20093;-80
2021/06/14 04:26:58;;;;;;;1.52;1.42;;;16.90;95.50;;;;;;4972652;28;20114;-76
2021/06/14 04:29:24;;;;;;;1.60;1.50;;;17.00;95.40;;;;;;4971968;28;20030;-78
2021/06/14 04:31:50;;;;;;;1.80;1.70;;;17.30;95.20;;;;;;4971987;28;20051;-78
2021/06/14 04:34:15;;;;;;;1.40;1.30;;;17.40;94.70;;;;;;5005427;28;20457;-78
2021/06/14 04:36:41;;;;;;;2.00;1.90;;;17.50;94.70;;;;;;5011452;28;20026;-79
2021/06/14 04:39:08;;;;;;;1.52;1.42;;;17.60;93.90;;;;;;5010712;28;20511;-79
2021/06/14 04:41:35;;;;;;;1.50;1.40;;;17.50;93.60;;;;;;5011424;28;20034;-78
2021/06/14 04:44:01;;;;;;;1.73;1.63;;;17.30;94.20;;;;;;5011293;28;20026;-79
2021/06/14 04:46:27;;;;;;;1.50;1.40;;;17.40;93.90;;;;;;5011102;28;20040;-79
2021/06/14 04:48:52;;;;;;;2.58;2.38;;;17.20;93.00;;;;;;5010970;28;20120;-79
2021/06/14 04:51:18;;;;;;;1.77;1.67;;;17.10;93.40;;;;;;5011022;28;20474;-80
2021/06/14 04:53:45;;;;;;;1.88;1.73;;;17.20;94.00;;;;;;5009649;28;20022;-78
2021/06/14 04:56:11;;;;;;;1.40;1.30;;;17.10;94.10;;;;;;5010856;28;20430;-78
2021/06/14 04:58:37;;;;;;;1.60;1.50;;;17.40;93.30;;;;;;5009483;28;20088;-79
2021/06/14 05:01:03;;;;;;;1.60;1.50;;;17.50;93.10;;;;;;5011353;28;20033;-80
2021/06/14 05:03:29;;;;;;;2.03;1.92;;;17.70;92.90;;;;;;5010450;28;20080;-79
2021/06/14 05:05:55;;;;;;;11.95;3.47;;;17.60;92.60;;;;;;5013714;28;20038;-79
2021/06/14 05:08:21;;;;;;;4.63;1.80;;;17.70;92.60;;;;;;5014108;28;20026;-78
2021/06/14 05:10:48;;;;;;;1.90;1.80;;;17.80;92.50;;;;;;5014352;28;20018;-76
2021/06/14 05:13:14;;;;;;;2.10;2.00;;;17.80;92.00;;;;;;5013031;28;20030;-78
2021/06/14 05:15:40;;;;;;;1.63;1.52;;;17.90;92.20;;;;;;5014329;28;20022;-77
2021/06/14 05:18:06;;;;;;;1.33;1.23;;;18.00;92.30;;;;;;5013635;28;20034;-75
2021/06/14 05:20:32;;;;;;;1.60;1.50;;;18.00;91.90;;;;;;5012964;28;20038;-77
2021/06/14 05:22:59;;;;;;;1.40;1.30;;;18.00;91.40;;;;;;5013754;28;20108;-76
2021/06/14 05:25:25;;;;;;;1.35;1.25;;;18.00;91.10;;;;;;5012911;28;20030;-80
2021/06/14 05:27:53;;;;;;;1.45;1.35;;;18.10;91.10;;;;;;5014066;28;20026;-78
2021/06/14 05:30:19;;;;;;;1.30;1.20;;;18.10;90.90;;;;;;5013785;28;20409;-79
2021/06/14 05:32:45;;;;;;;1.48;1.38;;;18.20;90.70;;;;;;5013820;28;20044;-79
2021/06/14 05:35:12;;;;;;;1.30;1.20;;;18.10;90.60;;;;;;5013904;28;20026;-80
2021/06/14 05:37:38;;;;;;;1.95;1.85;;;18.10;90.50;;;;;;5013496;28;20069;-79
2021/06/14 05:40:07;;;;;;;1.40;1.30;;;18.20;90.80;;;;;;5012574;28;20117;-78
2021/06/14 05:42:33;;;;;;;1.67;1.58;;;18.30;90.60;;;;;;5013078;28;20065;-79
2021/06/14 05:44:59;;;;;;;1.30;1.20;;;18.40;90.60;;;;;;5012582;28;20409;-80
2021/06/14 05:47:25;;;;;;;1.58;1.48;;;18.50;90.50;;;;;;5012488;28;20030;-80
2021/06/14 05:49:51;;;;;;;2.45;2.33;;;18.40;90.20;;;;;;5012922;28;20026;-80
2021/06/14 05:52:17;;;;;;;1.30;1.20;;;18.40;90.00;;;;;;5013419;28;20144;-79
2021/06/14 05:54:43;;;;;;;1.30;1.20;;;18.50;90.10;;;;;;5013169;28;20105;-80
2021/06/14 05:57:09;;;;;;;2.38;2.17;;;18.50;89.90;;;;;;5013218;28;20397;-79
2021/06/14 05:59:35;;;;;;;1.30;1.20;;;18.50;89.90;;;;;;5012926;28;20026;-81
2021/06/14 06:02:03;;;;;;;1.10;1.10;;;18.60;89.20;;;;;;5013354;28;20037;-79
2021/06/14 06:04:28;;;;;;;1.40;1.30;;;18.60;89.40;;;;;;5011940;28;20057;-80
2021/06/14 06:06:54;;;;;;;1.52;1.42;;;18.60;89.50;;;;;;5013103;28;20084;-80
2021/06/14 06:09:26;;;;;;;2.75;2.55;;;18.60;88.50;;;;;;5013352;28;20021;-81
2021/06/14 06:11:56;;;;;;;1.30;1.20;;;18.60;89.20;;;;;;5013404;28;20097;-81
2021/06/14 06:14:23;;;;;;;1.35;1.25;;;18.60;89.10;;;;;;5013274;28;20024;-80
2021/06/14 06:16:49;;;;;;;1.95;1.80;;;18.70;89.80;;;;;;5011854;28;20112;-80
2021/06/14 06:19:15;;;;;;;1.63;1.52;;;18.80;88.90;;;;;;5012766;28;20426;-80
2021/06/14 06:21:41;;;;;;;1.20;1.17;;;18.90;88.60;;;;;;5013294;28;20038;-80
2021/06/14 06:24:07;;;;;;;7.35;2.13;;;18.90;88.40;;;;;;5011786;28;20497;-79
2021/06/14 06:26:33;;;;;;;1.30;1.20;;;19.00;87.20;;;;;;5011259;28;20382;-81
2021/06/14 06:29:00;;;;;;;2.22;2.03;;;19.20;87.40;;;;;;5011887;28;20385;-83
2021/06/14 06:31:26;;;;;;;2.08;1.90;;;19.40;86.50;;;;;;5012690;28;20432;-82
2021/06/14 06:33:51;;;;;;;1.10;1.10;;;19.60;85.50;;;;;;5012453;28;20459;-79
2021/06/14 06:36:18;;;;;;;1.00;1.00;;;19.40;85.20;;;;;;5011107;28;20042;-82
2021/06/14 06:38:43;;;;;;;1.30;1.20;;;19.20;84.60;;;;;;5012623;28;20032;-79
2021/06/14 06:41:09;;;;;;;1.70;1.55;;;19.20;85.20;;;;;;5012468;28;20038;-80
2021/06/14 06:43:35;;;;;;;1.10;1.10;;;19.30;84.90;;;;;;5012324;28;20526;-80
2021/06/14 06:46:02;;;;;;;1.00;1.00;;;19.40;85.50;;;;;;5012386;28;20030;-81
2021/06/14 06:48:29;;;;;;;1.48;1.38;;;19.40;84.70;;;;;;5012503;28;20030;-82
2021/06/14 06:50:59;;;;;;;2.50;2.30;;;19.30;84.20;;;;;;5010786;28;20037;-82
2021/06/14 06:53:29;;;;;;;1.75;1.65;;;19.20;84.80;;;;;;5010942;28;20109;-83
2021/06/14 06:55:55;;;;;;;1.33;1.23;;;19.30;85.90;;;;;;5442971;22;20413;-80
2021/06/14 06:58:21;;;;;;;1.67;1.58;;;19.20;84.50;;;;;;5032164;28;20021;-80
2021/06/14 07:00:48;;;;;;;1.77;1.67;;;19.10;84.80;;;;;;5030422;28;20096;-78
2021/06/14 07:03:16;;;;;;;1.00;1.00;;;19.00;85.90;;;;;;5031954;28;20009;-80
2021/06/14 07:05:43;;;;;;;1.20;1.10;;;18.90;86.30;;;;;;5031607;28;20032;-80
2021/06/14 07:08:09;;;;;;;1.20;1.15;;;18.80;86.50;;;;;;5031863;28;20461;-78
2021/06/14 07:10:35;;;;;;;1.20;1.10;;;18.70;86.00;;;;;;5031849;28;20040;-80
2021/06/14 07:13:01;;;;;;;3.28;2.35;;;18.50;87.20;;;;;;5032076;28;20022;-78
2021/06/14 07:15:27;;;;;;;1.10;1.10;;;18.10;88.60;;;;;;5032099;28;20103;-79
2021/06/14 07:17:53;;;;;;;1.10;1.10;;;18.20;88.40;;;;;;5030158;28;20033;-81
2021/06/14 07:20:18;;;;;;;3.90;2.33;;;18.30;88.50;;;;;;5031491;28;20030;-80
2021/06/14 07:22:46;;;;;;;1.25;1.15;;;18.30;88.80;;;;;;5030535;28;20501;-81
2021/06/14 07:25:13;;;;;;;1.67;1.58;;;17.90;89.10;;;;;;5030445;28;20063;-81
2021/06/14 07:27:40;;;;;;;1.52;1.42;;;17.80;90.00;;;;;;5029369;28;20029;-79
2021/06/14 07:30:09;;;;;;;1.58;1.48;;;18.20;90.20;;;;;;5030250;28;20052;-78
2021/06/14 07:32:35;;;;;;;1.20;1.10;;;18.40;88.70;;;;;;5031609;28;20017;-78
2021/06/14 07:35:01;;;;;;;1.30;1.20;;;18.30;89.20;;;;;;5030944;28;20032;-79
2021/06/14 07:37:27;;;;;;;1.85;1.75;;;18.10;89.30;;;;;;5030308;28;20026;-79
2021/06/14 07:39:53;;;;;;;1.30;1.20;;;18.30;90.20;;;;;;5031475;28;20033;-80
2021/06/14 07:42:19;;;;;;;1.30;1.20;;;18.40;88.90;;;;;;5030252;28;20030;-80
2021/06/14 07:44:45;;;;;;;1.30;1.20;;;18.30;89.00;;;;;;5031562;28;20031;-79
2021/06/14 07:47:11;;;;;;;1.88;1.77;;;18.10;88.90;;;;;;5030270;28;20051;-82
2021/06/14 07:49:41;;;;;;;1.30;1.20;;;17.90;89.50;;;;;;5026886;28;20037;-79
2021/06/14 07:52:07;;;;;;;1.30;1.20;;;18.10;90.00;;;;;;5025001;28;20032;-83
2021/06/14 07:54:34;;;;;;;2.53;2.33;;;18.30;89.40;;;;;;5030018;28;20021;-79
2021/06/14 07:57:00;;;;;;;1.10;1.10;;;18.30;89.80;;;;;;5029603;28;20060;-79
2021/06/14 07:59:26;;;;;;;1.30;1.20;;;18.40;90.20;;;;;;5031449;28;20133;-78
2021/06/14 08:01:55;;;;;;;1.23;1.13;;;18.60;89.70;;;;;;5031415;28;20020;-79
2021/06/14 08:04:27;;;;;;;1.40;1.30;;;18.50;89.10;;;;;;5031239;28;20044;-80
2021/06/14 08:07:19;;;;;;;1.30;1.20;;;18.30;89.30;;;;;;5031254;28;20021;-81
2021/06/14 08:09:47;;;;;;;1.30;1.20;;;18.00;89.70;;;;;;5031302;28;20013;-81
2021/06/14 08:12:16;;;;;;;1.30;1.20;;;18.00;90.50;;;;;;5031685;28;20033;-80
2021/06/14 08:14:42;;;;;;;1.67;1.58;;;17.90;90.80;;;;;;5031505;28;20100;-80
2021/06/14 08:17:14;;;;;;;1.60;1.50;;;18.10;91.60;;;;;;5029271;28;20108;-79
2021/06/14 08:25:07;;;;;;;1.40;1.30;;;17.80;91.10;;;;;;5031199;28;19908;-78
2021/06/14 08:27:42;;;;;;;;;;;17.60;92.30;;;;;;5030994;28;20033;-77
2021/06/14 08:30:18;;;;;;;1.50;1.40;;;17.80;91.70;;;;;;5031170;28;20386;-79
2021/06/14 08:32:44;;;;;;;1.38;1.27;;;17.90;90.80;;;;;;5030659;28;20053;-78
2021/06/14 08:35:14;;;;;;;1.60;1.50;;;18.10;90.60;;;;;;5013266;28;20075;-79
2021/06/14 08:37:41;;;;;;;1.30;1.20;;;18.20;90.60;;;;;;5031013;28;20014;-79
2021/06/14 08:40:08;;;;;;;1.33;1.23;;;18.40;90.60;;;;;;5034447;28;20487;-77
2021/06/14 08:42:34;;;;;;;1.27;1.17;;;18.60;91.30;;;;;;5034947;28;20017;-77
2021/06/14 08:45:00;;;;;;;1.30;1.20;;;18.30;89.40;;;;;;5035029;28;20021;-77
2021/06/14 08:47:29;;;;;;;2.85;2.65;;;18.50;90.40;;;;;;5034364;28;20014;-79
2021/06/14 08:49:57;;;;;;;1.40;1.30;;;18.30;89.40;;;;;;5033057;28;20017;-79
2021/06/14 08:52:23;;;;;;;1.40;1.30;;;18.50;87.80;;;;;;5034526;28;20079;-79
2021/06/14 08:54:51;;;;;;;1.30;1.20;;;18.50;89.90;;;;;;5034572;28;20404;-77
2021/06/14 08:57:17;;;;;;;1.20;1.10;;;18.50;86.90;;;;;;5034100;28;20041;-79
2021/06/14 08:59:44;;;;;;;1.23;1.13;;;18.50;88.80;;;;;;5034588;28;20025;-79
2021/06/14 09:02:10;;;;;;;2.35;1.75;;;18.50;87.00;;;;;;5033919;28;20021;-77
2021/06/14 09:04:36;;;;;;;1.40;1.30;;;18.60;86.50;;;;;;5034674;28;20413;-75
2021/06/14 09:07:03;;;;;;;1.13;1.10;;;18.80;86.00;;;;;;5034409;28;20029;-79
2021/06/14 09:09:33;;;;;;;1.20;1.10;;;19.00;85.10;;;;;;5033314;28;20029;-81
2021/06/14 09:12:01;;;;;;;1.00;1.00;;;19.40;84.00;;;;;;5032814;28;20057;-76
2021/06/14 09:14:31;;;;;;;1.00;1.00;;;19.40;78.70;;;;;;5034453;28;20469;-78
2021/06/14 09:17:12;;;;;;;1.00;1.00;;;19.80;78.10;;;;;;5033894;28;20075;-78
2021/06/14 09:19:56;;;;;;;1.00;1.00;;;19.50;79.10;;;;;;5034104;28;20026;-81
2021/06/14 09:22:25;;;;;;;1.10;1.10;;;19.20;80.00;;;;;;5033770;28;20045;-75
2021/06/14 09:25:01;;;;;;;1.30;1.23;;;19.30;81.10;;;;;;5034486;28;20025;-78
2021/06/14 09:27:30;;;;;;;1.00;1.00;;;19.10;81.20;;;;;;5032308;28;20049;-78
2021/06/14 09:29:56;;;;;;;1.63;1.48;;;19.30;80.60;;;;;;5033788;28;20021;-78
2021/06/14 09:32:24;;;;;;;1.20;1.10;;;19.50;81.80;;;;;;5033452;28;20014;-79
2021/06/14 09:34:53;;;;;;;1.00;1.00;;;19.60;78.80;;;;;;5018965;28;20053;-78
2021/06/14 09:37:21;;;;;;;1.08;1.08;;;19.60;78.50;;;;;;5012512;28;20018;-77
2021/06/14 09:39:48;;;;;;;0.95;0.95;;;19.60;78.50;;;;;;5012579;28;20033;-76
2021/06/14 09:42:19;;;;;;;1.00;1.00;;;19.80;79.00;;;;;;5013545;28;20405;-75
2021/06/14 09:44:46;;;;;;;;;;;19.80;76.30;;;;;;5014452;28;20021;-76
2021/06/14 09:47:12;;;;;;;0.90;0.90;;;20.10;76.20;;;;;;5013984;28;20000;-77
2021/06/14 09:49:40;;;;;;;1.00;1.00;;;20.60;76.80;;;;;;5017059;28;20107;-78
2021/06/14 09:52:12;;;;;;;0.90;0.90;;;20.50;72.00;;;;;;5020630;28;20026;-76
2021/06/14 09:54:38;;;;;;;1.20;1.10;;;20.80;72.90;;;;;;5020332;28;20033;-77
2021/06/14 09:57:05;;;;;;;1.73;1.63;;;21.20;73.60;;;;;;5020986;28;20046;-77
2021/06/14 09:59:40;;;;;;;0.90;0.90;;;21.40;71.70;;;;;;5022817;28;20064;-75
2021/06/14 10:02:16;;;;;;;0.90;0.90;;;22.00;72.00;;;;;;5023435;28;20361;-76
2021/06/14 10:04:52;;;;;;;0.70;0.70;;;22.30;68.80;;;;;;5020178;28;20028;-76
2021/06/14 10:07:20;;;;;;;0.80;0.80;;;21.70;69.00;;;;;;5019985;28;20014;-79
2021/06/14 10:09:51;;;;;;;0.70;0.70;;;20.90;70.90;;;;;;5018865;28;20022;-79
2021/06/14 10:12:25;;;;;;;4.80;1.02;;;20.50;70.70;;;;;;5019744;28;20014;-77
2021/06/14 10:14:58;;;;;;;0.80;0.80;;;20.30;71.20;;;;;;5019154;28;20018;-78
2021/06/14 10:17:33;;;;;;;0.98;0.98;;;20.50;72.40;;;;;;5019454;28;20026;-79
2021/06/14 10:20:18;;;;;;;0.82;0.82;;;20.70;71.20;;;;;;5021216;28;20109;-78
2021/06/14 10:22:45;;;;;;;0.85;0.85;;;20.80;70.50;;;;;;5022187;28;20064;-79
2021/06/14 10:25:12;;;;;;;0.80;0.80;;;20.90;70.40;;;;;;5021366;28;20026;-80
2021/06/14 10:27:38;;;;;;;0.80;0.80;;;21.00;71.00;;;;;;5019086;28;20021;-84
2021/06/14 10:30:10;;;;;;;0.90;0.90;;;21.30;70.30;;;;;;5022705;28;20063;-81
2021/06/14 10:32:38;;;;;;;0.80;0.80;;;21.50;71.70;;;;;;5021843;28;20063;-80
2021/06/14 10:35:06;;;;;;;0.70;0.70;;;21.50;67.90;;;;;;5023089;28;20053;-81
2021/06/14 10:37:44;;;;;;;0.82;0.82;;;22.20;66.50;;;;;;5020793;28;20030;-83
2021/06/14 10:40:14;;;;;;;0.70;0.70;;;22.30;64.20;;;;;;5020179;28;20054;-79
2021/06/14 10:43:06;;;;;;;0.80;0.80;;;22.70;65.30;;;;;;5020869;28;20458;-78
2021/06/14 10:45:33;;;;;;;0.70;0.70;;;22.70;63.80;;;;;;5021500;28;20040;-77
2021/06/14 10:47:59;;;;;;;0.70;0.70;;;22.60;64.10;;;;;;5021602;28;20022;-82
2021/06/14 10:50:33;;;;;;;0.70;0.70;;;22.70;63.20;;;;;;5021859;28;20022;-77
2021/06/14 10:52:58;;;;;;;0.77;0.77;;;22.60;62.70;;;;;;5018351;28;20033;-79
2021/06/14 10:55:33;;;;;;;1.58;1.48;;;22.50;61.80;;;;;;5020745;28;20424;-76
2021/06/14 10:58:03;;;;;;;0.70;0.70;;;22.80;60.20;;;;;;5016057;28;20014;-79
2021/06/14 11:00:33;;;;;;;0.70;0.70;;;23.30;60.00;;;;;;5019673;28;20481;-82
2021/06/14 11:03:02;;;;;;;0.60;0.60;;;23.60;60.10;;;;;;5017846;28;20354;-79
2021/06/14 11:05:46;;;;;;;1.08;1.08;;;23.20;58.90;;;;;;5020533;28;20025;-76
2021/06/14 11:08:20;;;;;;;0.82;0.82;;;22.80;60.50;;;;;;5021039;28;20152;-79
2021/06/14 11:10:50;;;;;;;0.60;0.60;;;22.70;60.10;;;;;;5019447;28;20013;-78
2021/06/14 11:13:16;;;;;;;0.70;0.70;;;22.70;60.50;;;;;;5019776;28;20033;-78
2021/06/14 11:15:44;;;;;;;0.70;0.70;;;23.20;60.50;;;;;;5029231;28;20022;-79
2021/06/14 11:18:27;;;;;;;1.50;1.40;;;23.00;59.40;;;;;;5031730;28;20034;-80
2021/06/14 11:21:13;;;;;;;0.80;0.80;;;23.30;60.60;;;;;;5032145;28;20033;-79
2021/06/14 11:23:41;;;;;;;0.77;0.77;;;22.70;64.20;;;;;;5031837;28;20022;-86
2021/06/14 11:26:11;;;;;;;0.80;0.80;;;21.60;67.60;;;;;;5031647;28;20017;-80
2021/06/14 11:28:39;;;;;;;4.30;1.80;;;20.80;70.10;;;;;;5031312;28;20087;-81
2021/06/14 11:31:19;;;;;;;0.70;0.70;;;21.30;68.70;;;;;;5030747;28;20085;-79
2021/06/14 11:33:47;;;;;;;0.80;0.80;;;21.50;63.80;;;;;;5031360;28;20029;-81
2021/06/14 11:36:22;;;;;;;0.70;0.70;;;21.30;62.90;;;;;;5030373;28;20399;-79
2021/06/14 11:38:50;;;;;;;0.70;0.70;;;21.10;63.30;;;;;;5031507;28;20139;-80
2021/06/14 11:41:29;;;;;;;0.95;0.90;;;21.00;64.50;;;;;;5031376;28;20482;-81
2021/06/14 11:44:20;;;;;;;1.52;1.42;;;21.10;65.20;;;;;;5031211;28;20017;-79
2021/06/14 11:46:48;;;;;;;0.80;0.80;;;21.00;67.10;;;;;;5031803;28;20369;-82
2021/06/14 11:49:14;;;;;;;0.80;0.80;;;21.00;67.70;;;;;;5029916;28;20017;-81
2021/06/14 11:51:40;;;;;;;0.85;0.85;;;21.10;68.30;;;;;;5031515;28;20092;-80
2021/06/14 11:54:09;;;;;;;0.70;0.70;;;21.20;67.30;;;;;;5030835;28;20415;-77
2021/06/14 11:56:37;;;;;;;0.80;0.80;;;21.40;66.30;;;;;;5031412;28;20107;-82
2021/06/14 11:59:18;;;;;;;1.17;1.08;;;21.50;66.60;;;;;;5009968;28;20026;-81
2021/06/14 12:01:44;;;;;;;;;;;21.60;66.50;;;;;;4991958;28;20122;-79
2021/06/14 12:04:10;;;;;;;0.70;0.70;;;21.80;66.70;;;;;;4990190;28;20003;-80
2021/06/14 12:07:11;;;;;;;0.80;0.80;;;22.00;66.80;;;;;;4990616;28;20019;-79
2021/06/14 12:09:40;;;;;;;0.70;0.70;;;22.20;67.50;;;;;;4992044;28;20018;-81
2021/06/14 12:12:07;;;;;;;0.98;0.95;;;22.50;67.90;;;;;;4992012;28;20030;-78
2021/06/14 12:14:33;;;;;;;0.60;0.60;;;23.10;67.00;;;;;;4994391;28;20468;-80
2021/06/14 12:17:02;;;;;;;0.73;0.73;;;22.80;67.10;;;;;;4994698;28;20038;-78
2021/06/14 12:19:32;;;;;;;0.70;0.70;;;23.10;65.70;;;;;;4995514;28;20692;-80
2021/06/14 12:21:59;;;;;;;0.70;0.70;;;23.20;65.20;;;;;;4995652;28;20058;-83
2021/06/14 12:24:26;;;;;;;0.60;0.60;;;22.90;65.40;;;;;;4995374;28;20022;-81
2021/06/14 12:27:06;;;;;;;0.60;0.60;;;22.80;65.80;;;;;;4995938;28;20038;-78
2021/06/14 12:29:32;;;;;;;0.77;0.77;;;23.20;66.50;;;;;;4994574;28;20496;-79
2021/06/14 12:32:12;;;;;;;2.15;1.17;;;22.80;66.10;;;;;;4995106;28;20097;-78
2021/06/14 12:34:41;;;;;;;0.73;0.73;;;23.30;65.70;;;;;;5008325;28;20029;-78
2021/06/14 12:37:19;;;;;;;0.87;0.83;;;22.40;66.80;;;;;;5034625;28;20104;-83
2021/06/14 12:40:15;;;;;;;0.60;0.60;;;22.50;68.20;;;;;;5033712;28;20053;-80
2021/06/14 12:42:44;;;;;;;1.17;1.00;;;22.20;68.30;;;;;;5034558;28;20022;-80
2021/06/14 12:45:18;;;;;;;1.45;1.35;;;23.00;67.10;;;;;;5034816;28;20013;-83
2021/06/14 12:47:52;;;;;;;0.60;0.60;;;23.60;65.40;;;;;;5039641;22;20056;-78
2021/06/14 12:50:20;;;;;;;0.60;0.60;;;23.80;66.00;;;;;;5013843;28;20040;-79
2021/06/14 12:52:49;;;;;;;0.60;0.60;;;23.10;66.50;;;;;;5014317;28;20036;-81
2021/06/14 12:55:26;;;;;;;0.50;0.50;;;23.90;67.20;;;;;;5014629;28;20029;-80
2021/06/14 12:57:53;;;;;;;0.65;0.65;;;24.00;63.30;;;;;;5013800;28;20342;-79
2021/06/14 13:00:24;;;;;;;0.50;0.50;;;23.90;62.10;;;;;;5013068;28;20033;-79